Time;durP1;ratioP1;P1;durP2;ratioP2;P2;SDS_P1;SDS_P2;PMS_P1;PMS_P2;Temp;Humidity;BMP_temperature;BMP_pressure;BME280_temperature;BME280_humidity;BME280_pressure;Samples;Min_cycle;Max_cycle;Signal;HPM_P1;HPM_P2
2021/05/11 00:02:09;;;;;;;5.53;5.23;;;17.70;99.90;;;;;;5051373;28;20558;-75
2021/05/11 00:04:34;;;;;;;6.70;6.20;;;17.60;99.90;;;;;;5050112;28;20239;-75
2021/05/11 00:07:00;;;;;;;7.30;6.77;;;17.60;99.90;;;;;;5033576;28;20584;-75
2021/05/11 00:09:26;;;;;;;6.70;6.20;;;17.40;99.90;;;;;;5051326;28;20184;-75
2021/05/11 00:11:51;;;;;;;8.60;7.80;;;17.40;99.90;;;;;;5049020;28;20192;-75
2021/05/11 00:14:17;;;;;;;7.03;6.33;;;17.50;99.90;;;;;;5051086;28;20538;-75
2021/05/11 00:16:43;;;;;;;6.30;5.80;;;17.50;99.90;;;;;;5050478;28;20201;-75
2021/05/11 00:19:11;;;;;;;5.40;5.00;;;17.50;99.90;;;;;;5033280;28;20189;-75
2021/05/11 00:21:37;;;;;;;6.43;5.83;;;17.60;99.90;;;;;;5050159;28;20227;-75
2021/05/11 00:24:03;;;;;;;5.30;5.00;;;17.60;99.90;;;;;;5030520;28;600450;-74
2021/05/11 00:26:29;;;;;;;6.60;5.70;;;17.70;99.90;;;;;;5052089;28;20189;-74
2021/05/11 00:28:55;;;;;;;5.97;5.47;;;17.70;99.90;;;;;;5032842;28;20930;-75
2021/05/11 00:31:20;;;;;;;5.90;5.50;;;17.70;99.90;;;;;;5051997;28;20182;-76
2021/05/11 00:33:46;;;;;;;5.73;5.23;;;17.50;99.90;;;;;;5051263;28;20189;-76
2021/05/11 00:36:12;;;;;;;5.80;5.50;;;17.50;99.90;;;;;;5051512;28;20173;-75
2021/05/11 00:38:38;;;;;;;5.60;5.20;;;17.60;99.90;;;;;;5033448;28;20173;-75
2021/05/11 00:41:04;;;;;;;5.40;5.10;;;17.60;99.90;;;;;;5051810;28;20174;-76
2021/05/11 00:43:30;;;;;;;6.63;6.13;;;17.60;99.90;;;;;;5051919;28;20205;-75
2021/05/11 00:45:57;;;;;;;5.80;5.43;;;17.50;99.90;;;;;;5050631;28;20182;-75
2021/05/11 00:48:23;;;;;;;5.73;5.43;;;17.50;99.90;;;;;;5051279;28;20470;-75
2021/05/11 00:50:49;;;;;;;5.83;5.53;;;17.40;99.90;;;;;;5050741;28;20436;-75
2021/05/11 00:53:15;;;;;;;5.67;5.27;;;17.40;99.90;;;;;;5051799;28;20264;-74
2021/05/11 00:55:41;;;;;;;5.60;5.30;;;17.40;99.90;;;;;;5050847;28;20261;-75
2021/05/11 00:58:09;;;;;;;5.37;5.07;;;17.40;99.90;;;;;;5033709;28;20177;-75
2021/05/11 01:00:34;;;;;;;5.13;4.80;;;17.40;99.90;;;;;;5051155;28;20454;-80
2021/05/11 01:03:00;;;;;;;4.70;4.50;;;17.40;99.90;;;;;;5051299;28;20541;-75
2021/05/11 01:05:26;;;;;;;4.50;4.20;;;17.40;99.90;;;;;;5033937;28;20185;-75
2021/05/11 01:07:52;;;;;;;4.80;4.50;;;17.50;99.90;;;;;;5050813;28;20178;-75
2021/05/11 01:10:17;;;;;;;5.30;5.00;;;17.50;99.90;;;;;;5051591;28;20169;-75
2021/05/11 01:12:43;;;;;;;5.13;4.83;;;17.50;99.90;;;;;;5050632;28;20231;-75
2021/05/11 01:15:09;;;;;;;5.33;5.03;;;17.50;99.90;;;;;;5051210;28;20272;-74
2021/05/11 01:17:37;;;;;;;5.20;4.90;;;17.50;99.90;;;;;;5051154;28;20178;-79
2021/05/11 01:20:06;;;;;;;5.00;4.70;;;17.50;99.90;;;;;;5051464;28;20414;-74
2021/05/11 02:23:20;;;;;;;5.60;5.30;;;17.30;99.90;;;;;;5053248;28;20574;-75
2021/05/11 02:25:46;;;;;;;5.50;5.20;;;17.30;99.90;;;;;;5053227;28;20735;-75
2021/05/11 02:28:11;;;;;;;5.50;5.30;;;17.30;99.90;;;;;;5053825;28;20418;-75
2021/05/11 02:30:37;;;;;;;5.77;5.47;;;17.30;99.90;;;;;;5053525;28;20174;-77
2021/05/11 02:33:03;;;;;;;7.27;5.27;;;17.30;99.90;;;;;;5035117;28;20181;-75
2021/05/11 02:35:29;;;;;;;6.50;6.00;;;17.30;99.90;;;;;;5052718;28;20189;-75
2021/05/11 02:37:55;;;;;;;5.07;4.77;;;17.30;99.90;;;;;;5052922;28;20173;-75
2021/05/11 02:40:22;;;;;;;4.80;4.60;;;17.30;99.90;;;;;;5053485;28;20404;-75
2021/05/11 02:42:53;;;;;;;7.00;5.20;;;17.30;99.90;;;;;;5052682;28;20451;-75
2021/05/11 02:45:19;;;;;;;5.63;5.33;;;17.20;99.90;;;;;;5053493;28;20493;-75
2021/05/11 02:47:48;;;;;;;5.13;4.83;;;17.20;99.90;;;;;;5052623;28;20812;-76
2021/05/11 02:50:25;;;;;;;4.90;4.60;;;17.20;99.90;;;;;;5053478;28;20260;-75
2021/05/11 02:52:51;;;;;;;4.77;4.47;;;17.20;99.90;;;;;;5052896;28;20405;-75
2021/05/11 02:55:18;;;;;;;4.97;4.67;;;17.10;99.90;;;;;;5053297;28;20500;-75
2021/05/11 02:57:44;;;;;;;5.23;4.93;;;17.10;99.90;;;;;;5052495;28;20473;-75
2021/05/11 03:00:13;;;;;;;5.77;5.37;;;17.10;99.90;;;;;;5053024;28;20530;-75
2021/05/11 03:02:39;;;;;;;5.10;4.70;;;17.10;99.90;;;;;;5052456;28;20554;-75
2021/05/11 03:05:05;;;;;;;4.97;4.67;;;17.00;99.90;;;;;;5052172;28;20499;-76
2021/05/11 03:07:31;;;;;;;4.37;4.00;;;16.90;99.90;;;;;;5053472;28;20170;-74
2021/05/11 03:09:57;;;;;;;4.20;4.00;;;16.80;99.90;;;;;;5052023;28;20412;-74
2021/05/11 03:12:23;;;;;;;4.60;4.20;;;16.80;99.90;;;;;;5053217;28;20200;-74
2021/05/11 03:14:48;;;;;;;4.07;3.77;;;16.80;99.90;;;;;;5052205;28;20515;-75
2021/05/11 03:17:15;;;;;;;4.67;4.27;;;16.80;99.90;;;;;;5052954;28;20273;-75
2021/05/11 03:19:41;;;;;;;4.27;4.03;;;16.80;99.90;;;;;;5052338;28;20176;-79
2021/05/11 03:22:08;;;;;;;4.70;4.40;;;16.70;99.90;;;;;;5051961;28;20966;-75
2021/05/11 03:24:35;;;;;;;4.50;4.20;;;16.70;99.90;;;;;;5052483;28;20708;-74
2021/05/11 03:27:01;;;;;;;5.60;5.30;;;16.70;99.90;;;;;;5051682;28;21327;-74
2021/05/11 03:29:27;;;;;;;5.07;4.83;;;16.70;99.90;;;;;;5052486;28;20419;-74
2021/05/11 03:31:53;;;;;;;5.20;4.90;;;16.80;99.90;;;;;;5051814;28;20426;-75
2021/05/11 03:34:19;;;;;;;5.10;4.80;;;16.70;99.90;;;;;;5052721;28;20403;-75
2021/05/11 03:36:44;;;;;;;5.50;5.10;;;16.70;99.90;;;;;;5052103;28;20633;-79
2021/05/11 03:39:10;;;;;;;5.63;5.20;;;16.70;99.90;;;;;;5052399;28;20188;-75
2021/05/11 03:41:40;;;;;;;6.23;5.80;;;16.70;99.90;;;;;;5052419;28;20262;-74
2021/05/11 03:44:12;;;;;;;4.80;4.50;;;16.70;99.90;;;;;;5051574;28;20961;-74
2021/05/11 03:46:38;;;;;;;5.53;5.03;;;16.70;99.90;;;;;;5052309;28;20423;-74
2021/05/11 03:49:05;;;;;;;4.50;4.30;;;16.70;99.90;;;;;;5033656;28;20400;-74
2021/05/11 03:51:33;;;;;;;3.90;3.70;;;16.70;99.90;;;;;;5051683;28;20507;-74
2021/05/11 03:53:59;;;;;;;4.87;4.47;;;16.70;99.90;;;;;;5051304;28;20450;-74
2021/05/11 03:56:26;;;;;;;5.00;4.67;;;16.70;99.90;;;;;;5052267;28;20754;-74
2021/05/11 03:58:52;;;;;;;5.37;4.97;;;16.60;99.90;;;;;;5033646;28;20467;-75
2021/05/11 04:01:18;;;;;;;5.47;5.10;;;16.60;99.90;;;;;;5051990;28;20437;-74
2021/05/11 04:03:44;;;;;;;5.90;5.50;;;16.60;99.90;;;;;;5051743;28;20455;-79
2021/05/11 04:06:10;;;;;;;6.80;6.20;;;16.60;99.90;;;;;;5051643;28;20411;-74
2021/05/11 04:11:28;;;;;;;5.30;5.00;;;16.60;99.90;;;;;;5051167;28;20226;-74
2021/05/11 04:16:24;;;;;;;5.87;5.53;;;16.60;99.90;;;;;;5052211;28;20452;-74
2021/05/11 04:18:50;;;;;;;6.80;6.30;;;16.60;99.90;;;;;;5051278;28;20210;-74
2021/05/11 04:21:16;;;;;;;5.87;5.30;;;16.60;99.90;;;;;;5051819;28;20420;-74
2021/05/11 04:23:43;;;;;;;6.03;5.70;;;16.60;99.90;;;;;;5051829;28;20507;-74
2021/05/11 04:26:13;;;;;;;5.80;5.40;;;16.60;99.90;;;;;;5050653;28;20930;-74
2021/05/11 04:28:39;;;;;;;5.67;5.20;;;16.60;99.90;;;;;;5052030;28;20426;-74
2021/05/11 04:31:05;;;;;;;5.33;5.03;;;16.60;99.90;;;;;;5050878;28;21051;-74
2021/05/11 04:33:31;;;;;;;5.63;4.93;;;16.60;99.90;;;;;;5051961;28;20427;-74
2021/05/11 04:35:57;;;;;;;4.97;4.70;;;16.60;99.90;;;;;;5051010;28;20497;-74
2021/05/11 04:38:26;;;;;;;6.20;5.63;;;16.70;99.90;;;;;;5051809;28;20193;-74
2021/05/11 04:40:53;;;;;;;5.27;4.80;;;16.70;99.90;;;;;;5033116;28;20503;-75
2021/05/11 04:43:20;;;;;;;5.80;5.40;;;16.70;99.90;;;;;;5051513;28;20467;-74
2021/05/11 04:45:46;;;;;;;5.50;5.10;;;16.80;99.90;;;;;;5051101;28;20439;-78
2021/05/11 04:48:12;;;;;;;4.60;4.30;;;16.80;99.90;;;;;;5051344;28;20426;-75
2021/05/11 04:50:38;;;;;;;6.50;5.87;;;16.80;99.90;;;;;;5051640;28;20539;-75
2021/05/11 04:53:04;;;;;;;5.60;5.20;;;16.90;99.90;;;;;;5032962;28;20177;-74
2021/05/11 04:55:31;;;;;;;6.50;5.90;;;16.90;99.90;;;;;;5034080;28;20832;-75
2021/05/11 04:57:57;;;;;;;5.97;5.43;;;16.90;99.90;;;;;;5051559;28;20412;-75
2021/05/11 05:00:23;;;;;;;6.50;5.97;;;17.00;99.90;;;;;;5055180;28;20849;-74
2021/05/11 05:02:51;;;;;;;6.07;5.67;;;17.00;99.90;;;;;;5055013;28;20263;-79
2021/05/11 05:05:17;;;;;;;5.20;4.83;;;17.00;99.90;;;;;;5037606;28;20420;-74
2021/05/11 05:07:43;;;;;;;5.27;4.97;;;17.00;99.90;;;;;;5055371;28;20415;-74
2021/05/11 05:10:11;;;;;;;5.47;5.07;;;17.00;99.90;;;;;;5054139;28;20497;-75
2021/05/11 05:12:38;;;;;;;4.90;4.70;;;17.00;99.90;;;;;;5037574;28;20216;-77
2021/05/11 05:15:05;;;;;;;5.40;5.10;;;17.00;99.90;;;;;;5053485;28;20526;-75
2021/05/11 05:17:30;;;;;;;5.57;5.23;;;17.00;99.90;;;;;;5035166;28;20413;-76
2021/05/11 05:19:56;;;;;;;5.53;5.07;;;17.00;99.90;;;;;;5048237;28;20915;-76
2021/05/11 05:22:22;;;;;;;6.30;5.80;;;17.10;99.90;;;;;;5054635;28;20241;-75
2021/05/11 05:24:54;;;;;;;6.43;6.03;;;17.10;99.90;;;;;;5054175;28;20209;-82
2021/05/11 05:30:06;;;;;;;5.80;5.50;;;17.10;99.90;;;;;;5050351;28;20412;-75
2021/05/11 05:32:31;;;;;;;7.37;6.67;;;17.10;99.90;;;;;;5055093;28;20435;-75
2021/05/11 05:34:57;;;;;;;6.60;6.00;;;17.10;99.90;;;;;;5054650;28;20408;-76
2021/05/11 05:37:23;;;;;;;7.33;6.80;;;17.10;99.90;;;;;;5055025;28;20443;-75
2021/05/11 05:39:53;;;;;;;6.57;6.17;;;17.10;99.90;;;;;;5054509;28;20216;-84
2021/05/11 05:42:18;;;;;;;6.90;6.40;;;17.10;99.90;;;;;;5055040;28;20538;-75
2021/05/11 05:44:45;;;;;;;6.77;6.27;;;17.20;99.90;;;;;;5054580;28;20434;-74
2021/05/11 05:47:10;;;;;;;6.93;6.53;;;17.10;99.90;;;;;;5054313;28;20513;-76
2021/05/11 05:49:46;;;;;;;7.60;7.10;;;17.20;99.90;;;;;;5054244;28;20431;-76
2021/05/11 05:52:19;;;;;;;7.43;6.73;;;17.20;99.90;;;;;;5054169;28;20525;-75
2021/05/11 05:54:46;;;;;;;8.40;7.83;;;17.30;99.90;;;;;;5054878;28;20396;-75
2021/05/11 05:57:12;;;;;;;7.70;7.10;;;17.30;99.90;;;;;;5054096;28;20772;-76
2021/05/11 05:59:42;;;;;;;8.40;7.90;;;17.40;99.90;;;;;;5054823;28;20453;-75
2021/05/11 06:02:16;;;;;;;7.90;7.40;;;17.40;99.90;;;;;;5036309;28;20781;-75
2021/05/11 06:04:43;;;;;;;8.23;7.73;;;17.50;99.90;;;;;;5053487;28;20498;-74
2021/05/11 06:07:09;;;;;;;7.80;7.30;;;17.50;99.90;;;;;;5053886;28;20427;-75
2021/05/11 06:09:35;;;;;;;7.70;7.10;;;17.60;99.90;;;;;;5053997;28;20787;-75
2021/05/11 06:12:05;;;;;;;8.50;7.90;;;17.70;99.90;;;;;;5053364;28;20224;-75
2021/05/11 06:17:18;;;;;;;7.30;6.80;;;17.90;99.90;;;;;;5053270;28;20456;-75
2021/05/11 06:19:49;;;;;;;7.70;7.20;;;17.90;99.90;;;;;;5054596;28;20396;-75
2021/05/11 06:22:16;;;;;;;7.50;6.90;;;18.00;99.90;;;;;;5052930;28;20515;-75
2021/05/11 06:24:43;;;;;;;8.03;7.40;;;18.10;99.90;;;;;;5054230;28;20451;-75
2021/05/11 06:27:10;;;;;;;7.87;7.27;;;18.20;99.90;;;;;;5053338;28;20428;-74
2021/05/11 06:29:39;;;;;;;8.10;7.60;;;18.20;99.90;;;;;;5054189;28;20431;-75
2021/05/11 06:32:05;;;;;;;8.40;7.80;;;18.20;99.90;;;;;;5052767;28;20416;-74
2021/05/11 06:34:32;;;;;;;7.20;6.70;;;18.20;99.90;;;;;;5053978;28;20427;-74
2021/05/11 06:36:59;;;;;;;8.20;7.60;;;18.10;99.90;;;;;;5053432;28;20413;-75
2021/05/11 06:39:24;;;;;;;8.47;7.87;;;18.10;99.90;;;;;;5053987;28;20401;-75
2021/05/11 06:41:52;;;;;;;7.63;7.13;;;18.10;99.90;;;;;;5054125;28;20412;-75
2021/05/11 06:55:06;;;;;;;8.80;8.17;;;18.00;99.90;;;;;;5029081;28;20435;-75
2021/05/11 06:57:32;;;;;;;9.23;8.43;;;17.90;99.90;;;;;;5033850;28;20420;-75
2021/05/11 06:59:57;;;;;;;8.37;7.70;;;18.00;99.90;;;;;;5020258;28;20428;-74
2021/05/11 07:02:23;;;;;;;8.80;8.10;;;17.90;99.90;;;;;;5041876;28;20208;-74
2021/05/11 07:04:52;;;;;;;8.87;8.27;;;17.90;99.90;;;;;;5035459;28;20182;-75
2021/05/11 07:07:18;;;;;;;9.37;8.60;;;17.90;99.90;;;;;;5034409;28;20182;-74
2021/05/11 07:15:00;;;;;;;9.23;8.50;;;17.90;99.90;;;;;;5051998;28;20439;-78
2021/05/11 07:17:26;;;;;;;9.73;9.00;;;17.90;99.90;;;;;;5052140;28;20424;-74
2021/05/11 07:19:53;;;;;;;9.50;8.50;;;17.90;99.90;;;;;;5052887;28;20439;-74
2021/05/11 07:22:19;;;;;;;10.07;9.37;;;17.90;99.90;;;;;;5033080;28;20456;-74
2021/05/11 07:24:48;;;;;;;9.93;9.23;;;17.90;99.90;;;;;;5058345;28;20552;-74
2021/05/11 07:30:11;;;;;;;9.70;9.00;;;17.90;99.90;;;;;;5073045;28;20392;-74
2021/05/11 07:32:38;;;;;;;9.70;8.90;;;17.90;99.90;;;;;;5072943;28;20815;-73
2021/05/11 07:35:05;;;;;;;9.70;8.80;;;17.90;99.90;;;;;;5072193;28;20408;-73
2021/05/11 07:37:30;;;;;;;8.70;7.90;;;17.90;99.90;;;;;;5072321;28;20419;-73
2021/05/11 07:39:56;;;;;;;8.50;7.80;;;17.90;99.90;;;;;;5072674;28;20414;-74
2021/05/11 07:42:22;;;;;;;8.90;8.03;;;17.90;99.90;;;;;;5072632;28;20227;-73
2021/05/11 07:44:51;;;;;;;8.73;8.13;;;17.90;99.90;;;;;;5072953;28;20514;-73
2021/05/11 07:47:27;;;;;;;8.83;8.13;;;17.80;99.90;;;;;;5072035;28;20179;-73
2021/05/11 07:56:41;;;;;;;9.37;8.57;;;17.80;99.90;;;;;;5071645;28;20514;-73
2021/05/11 08:16:55;;;;;;;8.30;7.70;;;18.10;99.90;;;;;;5072504;28;20468;-73
2021/05/11 08:28:00;;;;;;;9.53;8.70;;;18.20;99.90;;;;;;5072361;28;20404;-73
2021/05/11 08:30:25;;;;;;;8.40;7.90;;;18.10;99.90;;;;;;5071726;28;20959;-73
2021/05/11 08:32:51;;;;;;;8.27;7.57;;;18.20;99.90;;;;;;5072671;28;20464;-73
2021/05/11 08:35:17;;;;;;;8.60;7.90;;;18.20;99.90;;;;;;5075918;28;20418;-74
2021/05/11 08:37:43;;;;;;;8.63;8.03;;;18.20;99.90;;;;;;5076259;28;20419;-73
2021/05/11 08:40:09;;;;;;;8.73;8.13;;;18.20;99.90;;;;;;5075699;28;20502;-73
2021/05/11 08:42:36;;;;;;;9.13;8.43;;;18.30;99.90;;;;;;5076250;28;20200;-73
2021/05/11 08:45:05;;;;;;;7.97;7.37;;;18.30;99.90;;;;;;5075673;28;20810;-74
2021/05/11 08:47:31;;;;;;;8.83;8.23;;;18.30;99.90;;;;;;5074863;28;20427;-73
2021/05/11 08:49:59;;;;;;;7.57;6.97;;;18.30;99.90;;;;;;5076277;28;20921;-73
2021/05/11 09:06:37;;;;;;;7.10;6.50;;;18.30;99.90;;;;;;5075285;28;20391;-73
2021/05/11 09:26:13;;;;;;;5.13;4.83;;;18.60;99.90;;;;;;5075488;28;20419;-73
2021/05/11 09:28:44;;;;;;;5.00;4.70;;;18.70;99.90;;;;;;5074588;28;20497;-72
2021/05/11 09:34:43;;;;;;;4.77;4.37;;;18.70;98.60;;;;;;5065387;28;21049;-73
2021/05/11 10:46:59;;;;;;;3.00;2.90;;;18.00;98.10;;;;;;5054325;28;20946;-72
2021/05/11 10:49:33;;;;;;;4.20;3.90;;;18.00;98.30;;;;;;5053399;28;20407;-72
2021/05/11 10:52:22;;;;;;;4.60;4.10;;;17.80;98.10;;;;;;5053889;28;20764;-72
2021/05/11 10:54:53;;;;;;;3.87;3.57;;;17.70;99.20;;;;;;5053814;28;20592;-73
2021/05/11 10:58:03;;;;;;;3.60;3.30;;;17.80;99.80;;;;;;5052146;28;20404;-73
2021/05/11 11:00:45;;;;;;;4.80;4.40;;;17.80;99.90;;;;;;5053090;28;20411;-73
2021/05/11 11:03:22;;;;;;;6.10;5.80;;;17.90;99.80;;;;;;5053244;28;20487;-73
2021/05/11 11:06:00;;;;;;;6.07;5.77;;;17.90;99.90;;;;;;5053874;28;20392;-73
2021/05/11 11:08:27;;;;;;;7.83;7.13;;;17.90;99.90;;;;;;5052918;28;20963;-73
2021/05/11 11:11:07;;;;;;;8.87;7.97;;;17.90;99.90;;;;;;5053530;28;20412;-73
2021/05/11 11:13:33;;;;;;;9.87;7.90;;;17.80;99.90;;;;;;5053127;28;20868;-73
2021/05/11 11:16:00;;;;;;;8.90;8.20;;;17.80;99.90;;;;;;5053559;28;20903;-73
2021/05/11 11:18:25;;;;;;;9.17;8.47;;;17.80;99.90;;;;;;5052703;28;20420;-73
2021/05/11 11:23:55;;;;;;;9.50;8.70;;;17.70;99.90;;;;;;5053105;28;20185;-73
2021/05/11 11:26:29;;;;;;;9.73;8.90;;;17.60;99.90;;;;;;5052539;28;20424;-72
2021/05/11 11:29:09;;;;;;;8.30;7.57;;;17.50;99.90;;;;;;5053171;28;20451;-73
2021/05/11 11:31:45;;;;;;;9.73;8.97;;;17.50;99.90;;;;;;5052943;28;20393;-73
2021/05/11 11:34:28;;;;;;;9.87;8.97;;;17.50;99.90;;;;;;5034394;28;20749;-74
2021/05/11 11:36:56;;;;;;;9.23;8.63;;;17.50;99.90;;;;;;5018858;28;20423;-72
2021/05/11 11:39:37;;;;;;;10.13;9.33;;;17.50;99.90;;;;;;5052463;28;20427;-73
2021/05/11 11:42:06;;;;;;;9.80;8.90;;;17.40;99.90;;;;;;5053233;28;20424;-73
2021/05/11 11:44:38;;;;;;;9.50;8.80;;;17.40;99.90;;;;;;5034405;28;20471;-73
2021/05/11 11:47:11;;;;;;;9.93;9.27;;;17.50;99.90;;;;;;5052532;28;20926;-73
2021/05/11 11:49:42;;;;;;;9.93;9.03;;;17.60;99.90;;;;;;5052536;28;20430;-73
2021/05/11 11:52:34;;;;;;;10.73;9.80;;;17.70;99.90;;;;;;5052863;28;20483;-73
2021/05/11 11:57:45;;;;;;;11.20;10.30;;;17.70;99.90;;;;;;5051792;28;20420;-73
2021/05/11 12:00:14;;;;;;;10.40;9.60;;;17.70;99.90;;;;;;5052358;28;20404;-75
2021/05/11 12:02:58;;;;;;;11.23;10.33;;;17.60;99.90;;;;;;5052520;28;20517;-73
2021/05/11 12:05:29;;;;;;;10.00;9.00;;;17.40;99.90;;;;;;5052015;28;20415;-73
2021/05/11 12:08:01;;;;;;;11.53;10.43;;;17.30;99.90;;;;;;5052499;28;20404;-73
2021/05/11 12:10:27;;;;;;;10.97;9.87;;;17.20;99.90;;;;;;5051679;28;20865;-73
2021/05/11 12:12:55;;;;;;;10.10;9.23;;;17.10;99.90;;;;;;5052526;28;20424;-73
2021/05/11 12:15:22;;;;;;;10.50;9.70;;;16.90;99.90;;;;;;5052027;28;20419;-73
2021/05/11 12:18:18;;;;;;;9.97;9.07;;;17.00;99.90;;;;;;5052151;28;20415;-73
2021/05/11 12:20:45;;;;;;;9.20;8.40;;;17.10;99.90;;;;;;5052467;28;20400;-73
2021/05/11 12:23:20;;;;;;;11.37;10.57;;;17.20;99.90;;;;;;5052313;28;20950;-73
2021/05/11 12:25:58;;;;;;;7.97;7.37;;;17.20;99.90;;;;;;5052630;28;20451;-73
2021/05/11 12:28:41;;;;;;;9.03;8.33;;;17.20;99.90;;;;;;5033957;28;20780;-73
2021/05/11 12:31:08;;;;;;;10.90;10.10;;;17.10;99.90;;;;;;5052448;28;20416;-73
2021/05/11 12:33:39;;;;;;;9.30;8.50;;;17.10;99.90;;;;;;5052071;28;20557;-73
2021/05/11 12:36:19;;;;;;;8.10;7.50;;;17.00;99.90;;;;;;5052253;28;20423;-73
2021/05/11 12:38:45;;;;;;;8.27;7.57;;;17.00;99.90;;;;;;5052142;28;20462;-73
2021/05/11 12:41:30;;;;;;;7.10;6.50;;;17.10;99.90;;;;;;5052240;28;20485;-73
2021/05/11 12:43:56;;;;;;;7.73;7.13;;;17.10;99.90;;;;;;5052200;28;20448;-73
2021/05/11 12:46:25;;;;;;;9.40;8.77;;;17.20;99.90;;;;;;5051637;28;20891;-73
2021/05/11 12:49:22;;;;;;;7.93;7.33;;;17.20;99.90;;;;;;5052203;28;20617;-73
2021/05/11 12:51:53;;;;;;;6.87;6.37;;;17.20;99.90;;;;;;5044447;28;20443;-73
2021/05/11 12:54:23;;;;;;;12.47;11.00;;;17.20;99.90;;;;;;5051504;28;20414;-73
2021/05/11 12:57:10;;;;;;;6.40;5.90;;;17.30;99.90;;;;;;5052216;28;20573;-73
2021/05/11 13:14:30;;;;;;;6.23;5.73;;;17.50;99.90;;;;;;5042097;28;20403;-75
2021/05/11 13:17:00;;;;;;;6.00;5.50;;;17.60;99.90;;;;;;5051478;28;20821;-75
2021/05/11 13:35:20;;;;;;;248.67;195.23;;;17.60;99.90;;;;;;5072212;28;20450;-75
2021/05/11 13:37:46;;;;;;;176.07;120.87;;;17.70;99.90;;;;;;5072189;28;20451;-75
2021/05/11 13:40:12;;;;;;;222.77;164.93;;;17.80;99.90;;;;;;5072679;28;20231;-75
2021/05/11 13:42:38;;;;;;;81.83;68.00;;;17.80;99.90;;;;;;5071828;28;20303;-75
2021/05/11 13:45:08;;;;;;;109.57;86.77;;;17.80;99.90;;;;;;5074099;28;20474;-75
2021/05/11 13:47:33;;;;;;;7.73;7.17;;;17.90;99.90;;;;;;5073028;28;20512;-75
2021/05/11 13:50:02;;;;;;;8.40;7.80;;;17.80;99.90;;;;;;5074137;28;20528;-75
2021/05/11 13:52:29;;;;;;;6.07;5.67;;;17.80;99.90;;;;;;5074118;28;20829;-75
2021/05/11 13:54:58;;;;;;;8.60;8.00;;;17.80;99.90;;;;;;5074476;28;20419;-75
2021/05/11 14:02:55;;;;;;;7.63;6.93;;;17.80;99.90;;;;;;5072315;28;20494;-75
2021/05/11 14:05:21;;;;;;;7.53;6.93;;;17.90;99.90;;;;;;5073737;28;20529;-75
2021/05/11 14:07:47;;;;;;;6.30;5.90;;;18.00;99.90;;;;;;5074323;28;20415;-75
2021/05/11 14:10:13;;;;;;;6.23;5.83;;;18.00;99.90;;;;;;5072813;28;20185;-75
2021/05/11 14:12:39;;;;;;;5.97;5.57;;;18.00;99.90;;;;;;5072613;28;20230;-75
2021/05/11 14:15:06;;;;;;;7.20;6.80;;;18.00;99.90;;;;;;5073324;28;20420;-75
2021/05/11 14:17:32;;;;;;;4.97;4.57;;;18.10;99.90;;;;;;5067275;28;20899;-75
2021/05/11 14:19:58;;;;;;;7.80;7.30;;;18.10;99.90;;;;;;5073229;28;20507;-75
2021/05/11 14:22:25;;;;;;;5.90;5.60;;;18.10;99.90;;;;;;5072417;28;20552;-76
2021/05/11 14:24:51;;;;;;;6.73;6.33;;;18.00;99.90;;;;;;5061024;28;20220;-75
2021/05/11 14:27:16;;;;;;;5.30;4.90;;;18.00;99.90;;;;;;5035769;28;20405;-75
2021/05/11 14:29:43;;;;;;;7.87;7.33;;;18.00;99.90;;;;;;5053231;28;20208;-75
2021/05/11 14:32:10;;;;;;;6.33;5.73;;;17.90;99.90;;;;;;5034555;28;20584;-78
2021/05/11 14:34:37;;;;;;;5.83;5.43;;;18.00;99.90;;;;;;5052968;28;20416;-77
2021/05/11 14:37:03;;;;;;;6.50;6.00;;;18.00;99.90;;;;;;5036004;28;20887;-77
2021/05/11 14:39:29;;;;;;;6.73;6.13;;;17.90;99.90;;;;;;5047784;28;20428;-78
2021/05/11 14:41:55;;;;;;;7.90;7.37;;;17.90;99.90;;;;;;5053669;28;20914;-78
2021/05/11 14:44:26;;;;;;;5.87;5.47;;;17.90;99.90;;;;;;5052644;28;20267;-77
2021/05/11 14:46:53;;;;;;;6.40;5.80;;;17.90;99.90;;;;;;5053581;28;20416;-78
2021/05/11 14:49:19;;;;;;;5.63;5.23;;;17.90;99.90;;;;;;5053520;28;20447;-78
2021/05/11 14:51:45;;;;;;;6.10;5.50;;;17.90;99.90;;;;;;5035015;28;20416;-78
2021/05/11 14:54:11;;;;;;;7.17;6.57;;;17.90;99.90;;;;;;5053403;28;20899;-79
2021/05/11 14:56:40;;;;;;;6.70;6.20;;;17.90;99.90;;;;;;5051878;28;20704;-79
2021/05/11 14:59:07;;;;;;;8.70;8.20;;;17.90;99.90;;;;;;5052934;28;20424;-76
2021/05/11 15:01:33;;;;;;;7.27;6.63;;;17.90;99.90;;;;;;5034671;28;20412;-84
2021/05/11 15:04:00;;;;;;;8.33;6.53;;;18.00;99.90;;;;;;5053053;28;20520;-84
2021/05/11 15:06:29;;;;;;;7.80;7.20;;;18.00;99.90;;;;;;5052515;28;20166;-84
2021/05/11 15:08:57;;;;;;;7.77;7.17;;;18.00;99.90;;;;;;5052376;28;20425;-84
2021/05/11 15:11:23;;;;;;;6.80;6.40;;;18.00;99.90;;;;;;5052668;28;20515;-88
2021/05/11 15:13:51;;;;;;;6.73;6.23;;;18.00;99.90;;;;;;5052949;28;20491;-83
2021/05/11 15:16:22;;;;;;;6.60;6.00;;;18.00;99.90;;;;;;5035172;28;20204;-83
2021/05/11 15:18:49;;;;;;;6.43;5.97;;;18.00;99.90;;;;;;5053456;28;20389;-84
2021/05/11 15:21:16;;;;;;;6.87;6.37;;;18.00;99.90;;;;;;5053030;28;20466;-83
2021/05/11 15:23:43;;;;;;;8.20;7.60;;;18.10;99.90;;;;;;5052447;28;20490;-83
2021/05/11 15:26:11;;;;;;;8.37;7.83;;;18.10;99.90;;;;;;5053261;28;20451;-84
2021/05/11 15:28:36;;;;;;;7.23;6.63;;;18.10;99.90;;;;;;5052628;28;20900;-84
2021/05/11 15:31:04;;;;;;;8.30;7.70;;;18.10;99.90;;;;;;5053432;28;20442;-83
2021/05/11 15:33:30;;;;;;;7.80;7.10;;;18.10;99.90;;;;;;5034511;28;20185;-84
2021/05/11 15:35:58;;;;;;;8.00;7.40;;;18.10;99.90;;;;;;5052979;28;20786;-83
2021/05/11 15:38:24;;;;;;;9.33;8.63;;;18.10;99.90;;;;;;5034828;28;20166;-84
2021/05/11 15:40:50;;;;;;;8.10;7.37;;;18.20;99.90;;;;;;5052707;28;20505;-84
2021/05/11 15:43:16;;;;;;;8.47;7.57;;;18.10;99.90;;;;;;5052542;28;20501;-83
2021/05/11 15:45:42;;;;;;;7.53;6.83;;;18.10;99.90;;;;;;5051986;28;20416;-83
2021/05/11 15:48:09;;;;;;;7.97;7.37;;;18.10;99.90;;;;;;5035187;28;20518;-83
2021/05/11 15:50:37;;;;;;;9.83;9.00;;;18.10;99.90;;;;;;5052286;28;20169;-83
2021/05/11 15:53:09;;;;;;;8.53;7.87;;;18.10;99.90;;;;;;5052910;28;20495;-83
2021/05/11 15:55:38;;;;;;;7.97;7.17;;;18.10;99.90;;;;;;5034551;28;20400;-84
2021/05/11 15:58:04;;;;;;;9.23;8.50;;;18.10;99.90;;;;;;5052789;28;20488;-84
2021/05/11 16:00:30;;;;;;;8.07;7.33;;;18.10;99.90;;;;;;5052134;28;20440;-84
2021/05/11 16:02:58;;;;;;;8.93;8.03;;;18.10;99.90;;;;;;5052608;28;20208;-83
2021/05/11 16:05:24;;;;;;;8.23;7.63;;;18.20;99.90;;;;;;5052296;28;20926;-87
2021/05/11 16:07:51;;;;;;;7.97;7.37;;;18.20;99.90;;;;;;5034947;28;20408;-83
2021/05/11 16:10:17;;;;;;;7.60;7.00;;;18.20;99.90;;;;;;5034739;28;20499;-84
2021/05/11 16:12:44;;;;;;;7.70;7.10;;;18.20;99.90;;;;;;5051940;28;20404;-83
2021/05/11 16:15:15;;;;;;;8.20;7.60;;;18.20;99.90;;;;;;5052964;28;20408;-83
2021/05/11 16:17:41;;;;;;;8.83;8.03;;;18.20;99.90;;;;;;5051947;28;20422;-84
2021/05/11 16:20:11;;;;;;;10.73;9.80;;;18.20;99.90;;;;;;5052495;28;20528;-83
2021/05/11 16:22:38;;;;;;;9.13;8.30;;;18.10;99.90;;;;;;5051409;28;20860;-83
2021/05/11 16:25:07;;;;;;;10.43;9.53;;;18.00;99.90;;;;;;5052598;28;20483;-83
2021/05/11 16:27:33;;;;;;;7.77;7.20;;;18.00;99.90;;;;;;5051759;28;20926;-82
2021/05/11 16:29:59;;;;;;;10.63;7.47;;;18.00;99.90;;;;;;5052697;28;20400;-82
2021/05/11 16:32:24;;;;;;;5.97;5.47;;;17.90;99.90;;;;;;5052483;28;20415;-82
2021/05/11 16:34:51;;;;;;;5.83;5.43;;;17.90;99.90;;;;;;5052063;28;20633;-82
2021/05/11 16:37:16;;;;;;;8.23;7.57;;;17.80;99.90;;;;;;5052048;28;20521;-80
2021/05/11 16:39:43;;;;;;;67.10;50.27;;;17.80;99.90;;;;;;5051744;28;20412;-81
2021/05/11 16:42:09;;;;;;;10.93;9.83;;;17.90;99.90;;;;;;5052361;28;20891;-80
2021/05/11 16:44:37;;;;;;;9.83;8.90;;;18.00;99.90;;;;;;5051493;28;20970;-80
2021/05/11 16:47:07;;;;;;;10.57;9.77;;;18.30;99.90;;;;;;5051882;28;20804;-81
2021/05/11 16:49:33;;;;;;;6.70;6.07;;;18.40;99.90;;;;;;5051540;28;20415;-80
2021/05/11 16:51:59;;;;;;;6.90;6.50;;;18.50;99.90;;;;;;5051732;28;20976;-80
2021/05/11 16:54:24;;;;;;;6.70;6.30;;;18.50;99.90;;;;;;5053242;28;20423;-81
2021/05/11 16:56:50;;;;;;;7.80;7.30;;;18.50;99.90;;;;;;5037923;28;20173;-80
2021/05/11 16:59:18;;;;;;;7.03;6.33;;;18.50;99.90;;;;;;5038266;28;20224;-80
2021/05/11 17:01:44;;;;;;;9.00;8.40;;;18.50;99.90;;;;;;5055278;28;20182;-80
2021/05/11 17:04:09;;;;;;;7.63;7.03;;;18.60;99.90;;;;;;5055867;28;20460;-80
2021/05/11 17:06:35;;;;;;;8.30;7.77;;;18.70;99.90;;;;;;5055271;28;20248;-80
2021/05/11 17:09:03;;;;;;;8.93;8.30;;;18.80;99.90;;;;;;5055793;28;20170;-80
2021/05/11 17:11:31;;;;;;;7.90;7.30;;;18.90;99.90;;;;;;5055165;28;20178;-80
2021/05/11 17:14:04;;;;;;;45.30;35.67;;;19.00;99.90;;;;;;5055585;28;20420;-80
2021/05/11 17:16:31;;;;;;;139.20;92.03;;;19.00;99.90;;;;;;5055168;28;20462;-80
2021/05/11 17:18:57;;;;;;;21.50;19.40;;;19.10;99.90;;;;;;5055450;28;20419;-80
2021/05/11 17:21:25;;;;;;;13.03;11.83;;;19.20;99.90;;;;;;5055594;28;20423;-80